Time;durP1;ratioP1;P1;durP2;ratioP2;P2;SDS_P1;SDS_P2;PMS_P1;PMS_P2;Temp;Humidity;BMP_temperature;BMP_pressure;BME280_temperature;BME280_humidity;BME280_pressure;Samples;Min_cycle;Max_cycle;Signal;HPM_P1;HPM_P2
2022/04/17 00:02:28;;;;;;;;;25.60;24.40;;;;;;;;5230360;28;8773;-72
2022/04/17 00:05:00;;;;;;;;;17.60;17.60;;;;;;;;5245998;28;8831;-72
2022/04/17 00:07:34;;;;;;;;;15.00;15.00;;;;;;;;5229923;28;8776;-70
2022/04/17 00:10:06;;;;;;;;;14.60;13.40;;;;;;;;5213566;28;8811;-70
2022/04/17 00:12:39;;;;;;;;;14.80;14.00;;;;;;;;5229818;28;8797;-71
2022/04/17 00:15:11;;;;;;;;;17.60;17.60;;;;;;;;5263330;28;8781;-70
2022/04/17 00:17:43;;;;;;;;;16.20;16.20;;;;;;;;5246321;28;8789;-70
2022/04/17 00:20:16;;;;;;;;;12.40;12.40;;;;;;;;5250096;28;9582;-69
2022/04/17 00:22:48;;;;;;;;;19.80;18.80;;;;;;;;5249971;28;8782;-71
2022/04/17 00:25:20;;;;;;;;;9.40;9.40;;;;;;;;5250278;28;8790;-71
2022/04/17 00:27:51;;;;;;;;;13.00;13.00;;;;;;;;5250500;28;8798;-71
2022/04/17 00:30:23;;;;;;;;;21.60;20.20;;;;;;;;5249594;28;8774;-72
2022/04/17 00:32:55;;;;;;;;;16.60;15.40;;;;;;;;5250588;28;8891;-71
2022/04/17 00:35:27;;;;;;;;;23.60;22.20;;;;;;;;5250383;28;8786;-71
2022/04/17 00:37:58;;;;;;;;;21.20;20.20;;;;;;;;5232958;28;8790;-72
2022/04/17 00:40:29;;;;;;;;;55.20;45.20;;;;;;;;5233341;28;8778;-70
2022/04/17 00:43:01;;;;;;;;;89.60;64.40;;;;;;;;5249050;28;8813;-71
2022/04/17 00:45:32;;;;;;;;;70.40;51.80;;;;;;;;5250559;28;8806;-71
2022/04/17 00:48:03;;;;;;;;;16.00;15.40;;;;;;;;5233040;28;9419;-70
2022/04/17 00:50:35;;;;;;;;;30.20;29.80;;;;;;;;5233309;28;8814;-69
2022/04/17 00:53:07;;;;;;;;;26.00;25.40;;;;;;;;5249603;28;8782;-72
2022/04/17 00:55:40;;;;;;;;;41.20;38.20;;;;;;;;5250176;28;8771;-71
2022/04/17 00:58:14;;;;;;;;;55.20;49.80;;;;;;;;5245383;28;8768;-71
2022/04/17 01:00:45;;;;;;;;;30.60;27.80;;;;;;;;5246690;28;8958;-72
2022/04/17 01:03:18;;;;;;;;;40.80;40.80;;;;;;;;5247608;28;8996;-72
2022/04/17 01:05:49;;;;;;;;;43.40;42.80;;;;;;;;5216571;28;8767;-72
2022/04/17 01:08:21;;;;;;;;;65.00;53.80;;;;;;;;5250269;28;8793;-71
2022/04/17 01:10:54;;;;;;;;;65.40;51.40;;;;;;;;5233193;28;8775;-71
2022/04/17 01:13:26;;;;;;;;;71.80;57.20;;;;;;;;5233379;28;8818;-71
2022/04/17 01:15:59;;;;;;;;;64.00;53.60;;;;;;;;5233498;28;8763;-71
2022/04/17 01:18:51;;;;;;;;;56.80;50.80;;;;;;;;5233890;28;8786;-72
2022/04/17 01:21:25;;;;;;;;;47.60;44.40;;;;;;;;5236279;28;8778;-72
2022/04/17 01:26:57;;;;;;;;;36.20;36.20;;;;;;;;5250232;28;8781;-72
2022/04/17 01:29:31;;;;;;;;;30.80;26.40;;;;;;;;5249778;28;8793;-72
2022/04/17 01:32:07;;;;;;;;;24.40;23.20;;;;;;;;5249334;28;8873;-71
2022/04/17 01:34:39;;;;;;;;;20.80;20.60;;;;;;;;5250411;28;8790;-73
2022/04/17 01:37:11;;;;;;;;;24.00;24.00;;;;;;;;5249051;28;8805;-72
2022/04/17 01:39:43;;;;;;;;;34.80;33.00;;;;;;;;5249312;28;8778;-71
2022/04/17 01:42:16;;;;;;;;;63.20;53.60;;;;;;;;5215840;28;8813;-71
2022/04/17 01:44:51;;;;;;;;;39.60;39.60;;;;;;;;5231217;28;8829;-70
2022/04/17 01:47:23;;;;;;;;;45.20;42.20;;;;;;;;5232713;28;8809;-71
2022/04/17 01:49:54;;;;;;;;;39.40;34.80;;;;;;;;5232614;28;8787;-71
2022/04/17 01:52:27;;;;;;;;;62.20;52.80;;;;;;;;5249683;28;8794;-70
2022/04/17 01:54:59;;;;;;;;;53.80;47.40;;;;;;;;5232378;28;8840;-70
2022/04/17 01:57:30;;;;;;;;;26.80;26.40;;;;;;;;5232751;28;8891;-71
2022/04/17 02:00:03;;;;;;;;;35.40;35.20;;;;;;;;5232735;28;8829;-72
2022/04/17 02:02:36;;;;;;;;;41.80;40.40;;;;;;;;5249370;28;8803;-72
2022/04/17 02:05:08;;;;;;;;;48.80;37.60;;;;;;;;5232227;28;8811;-71
2022/04/17 02:07:39;;;;;;;;;25.60;24.20;;;;;;;;5216130;28;8782;-70
2022/04/17 02:10:19;;;;;;;;;28.80;28.40;;;;;;;;5216430;28;8897;-72
2022/04/17 02:12:50;;;;;;;;;32.80;29.20;;;;;;;;5233089;28;8790;-70
2022/04/17 02:15:22;;;;;;;;;30.00;28.20;;;;;;;;5215389;28;8798;-70
2022/04/17 02:18:13;;;;;;;;;46.40;42.60;;;;;;;;5248791;28;8785;-71
2022/04/17 02:20:45;;;;;;;;;61.00;49.40;;;;;;;;5232104;28;8790;-71
2022/04/17 02:23:18;;;;;;;;;57.80;49.20;;;;;;;;5232027;28;8830;-71
2022/04/17 02:25:49;;;;;;;;;61.20;49.20;;;;;;;;5232055;28;8810;-70
2022/04/17 02:28:20;;;;;;;;;66.40;54.40;;;;;;;;5249015;28;8783;-70
2022/04/17 02:30:52;;;;;;;;;33.80;33.80;;;;;;;;5231951;28;8805;-69
2022/04/17 02:33:24;;;;;;;;;52.80;46.20;;;;;;;;5248451;28;8809;-71
2022/04/17 02:35:56;;;;;;;;;67.40;50.20;;;;;;;;5248169;28;8814;-73
2022/04/17 02:38:28;;;;;;;;;114.33;84.00;;;;;;;;5248715;28;8778;-73
2022/04/17 02:41:00;;;;;;;;;42.80;40.60;;;;;;;;5232251;28;9156;-72
2022/04/17 02:43:32;;;;;;;;;42.80;41.80;;;;;;;;5227092;28;8838;-73
2022/04/17 02:46:03;;;;;;;;;22.60;22.20;;;;;;;;5259458;28;8928;-72
2022/04/17 02:48:35;;;;;;;;;40.60;35.00;;;;;;;;5243220;28;8799;-71
2022/04/17 02:51:07;;;;;;;;;38.60;35.40;;;;;;;;5238052;28;8929;-72
2022/04/17 02:53:39;;;;;;;;;23.20;22.20;;;;;;;;5264493;28;8821;-71
2022/04/17 02:56:11;;;;;;;;;23.60;23.60;;;;;;;;5251359;28;8814;-72
2022/04/17 02:58:43;;;;;;;;;22.40;22.40;;;;;;;;5251214;28;8813;-72
2022/04/17 03:06:56;;;;;;;;;26.40;25.00;;;;;;;;5269204;28;8791;-71
2022/04/17 03:09:28;;;;;;;;;34.60;33.00;;;;;;;;5252055;28;8785;-71
2022/04/17 03:12:00;;;;;;;;;19.80;18.40;;;;;;;;5251448;28;8799;-71
2022/04/17 03:14:32;;;;;;;;;21.60;21.60;;;;;;;;5251580;28;8788;-72
2022/04/17 03:17:04;;;;;;;;;21.40;21.40;;;;;;;;5234010;28;8809;-72
2022/04/17 03:19:35;;;;;;;;;17.00;17.00;;;;;;;;5234918;28;8837;-72
2022/04/17 03:22:07;;;;;;;;;14.00;12.00;;;;;;;;5268844;28;8789;-70
2022/04/17 03:24:39;;;;;;;;;10.00;10.00;;;;;;;;5251347;28;8833;-70
2022/04/17 03:27:10;;;;;;;;;22.00;21.40;;;;;;;;5251049;28;8823;-71
2022/04/17 03:29:41;;;;;;;;;126.00;103.00;;;;;;;;5218017;28;8778;-70
2022/04/17 03:32:32;;;;;;;;;25.20;22.40;;;;;;;;5251845;28;9822;-71
2022/04/17 03:35:03;;;;;;;;;22.80;22.60;;;;;;;;5251063;28;8779;-71
2022/04/17 03:37:35;;;;;;;;;18.00;18.00;;;;;;;;5233816;28;8794;-71
2022/04/17 03:40:06;;;;;;;;;20.60;19.40;;;;;;;;5250608;28;8795;-71
2022/04/17 03:42:38;;;;;;;;;15.00;15.00;;;;;;;;5250331;28;8787;-70
2022/04/17 03:45:14;;;;;;;;;24.40;23.40;;;;;;;;5247312;28;8986;-70
2022/04/17 03:47:46;;;;;;;;;12.40;12.40;;;;;;;;5251097;28;8838;-70
2022/04/17 03:50:18;;;;;;;;;5.80;5.80;;;;;;;;5250696;28;8775;-71
2022/04/17 03:52:50;;;;;;;;;5.00;5.00;;;;;;;;5232505;28;8778;-71
2022/04/17 03:55:21;;;;;;;;;1.20;1.20;;;;;;;;5266173;28;8851;-71
2022/04/17 03:57:52;;;;;;;;;4.40;4.00;;;;;;;;5234193;28;8798;-71
2022/04/17 04:00:23;;;;;;;;;0.00;0.00;;;;;;;;5250444;28;8826;-71
2022/04/17 04:02:55;;;;;;;;;6.80;6.80;;;;;;;;5232439;28;8799;-71
2022/04/17 04:05:26;;;;;;;;;23.00;22.40;;;;;;;;5232963;28;8802;-72
2022/04/17 04:07:57;;;;;;;;;15.40;15.40;;;;;;;;5233946;28;8801;-76
2022/04/17 04:10:29;;;;;;;;;16.20;16.20;;;;;;;;5250386;28;8893;-75
2022/04/17 04:13:01;;;;;;;;;16.60;16.60;;;;;;;;5233533;28;9521;-72
2022/04/17 04:15:33;;;;;;;;;18.40;18.40;;;;;;;;5217340;28;8790;-65
2022/04/17 04:18:04;;;;;;;;;23.00;22.60;;;;;;;;5265462;28;8842;-67
2022/04/17 04:20:35;;;;;;;;;44.00;37.60;;;;;;;;5213179;28;8840;-67
2022/04/17 04:23:06;;;;;;;;;23.20;22.00;;;;;;;;5238339;28;8849;-67
2022/04/17 04:25:37;;;;;;;;;20.00;20.00;;;;;;;;5213416;28;8811;-67
